Signal Hill, California
Current Conditions -  °F | °C
As of 8:53 AM on Saturday 25 Oct 2014 (Local Time) from KLGB Reporting Station
Clear Clear  
Wind Chill: 70°   Ceiling: Unl
Heat Index: 70°   Visibility: 10mi
Dew Point: 62°   Wind: 5mph
Humidity: 76%   Direction: 310°NW
Pressure: 30.04"   Gusts: NA
Location:  33.8°N, 118.16°W
Report Text: KLGB 251553Z 31004KT 10SM CLR 21/17 A3004 RMK AO2 SLP172 T02110167
Loading
Personal Weather Stations






























Interactive Weather Map
Tropical Storm Tracking
New forecast layout! Learn more

10-Day Weather Forecast

Advertisements
Track Severe Weather on mobile